Dobrodošli na spletni strani vremenske postaje Senovo. Vse informacije so informativnega značaja, saj vremenska postaja ni del državne mreže meteoroloških postaj. OBVESTILO: Letni količini padavin navedeni na spletni strani je potrebno prišteti 98,1 mm, zaradi izgube podatkov.


Posebna pozornost v zvezi z vremenskimi dogajanji ni potrebna.    Posebna pozornost v zvezi z vremenskimi dogajanji ni potrebna.

Pogled proti Armezu več informacij Pogled proti Armezu


Lisca več informacij Lisca


Radar strel več informacij blitzortung!


Radar padavin več informacij rain snow radar


Obiščite še:

Template documentation
and downloads

And another site



Weather Underground, zgodovina - Tekstovno

Dnevni povzetek za Avgust 27, 2017 Enote:  Angleško    Metrično   Obe
« Predhodni Dan
Naslednji Dan »
Dnevni Tedenski Mesečni Letni Po meri
  Višja: Nižja: Povprečje:
Temperatura: 94.1 °F 61.3 °F 76.8 °F
Točka rosišča: 68.7 °F 53.8 °F 62.1 °F
Vlažnost: 93 % 37 % 65 %
Hitrost vetra: 8 mph 0 mph 1.4 mph
Sunki vetra: 17.2 mph - -
Veter:- - SSE
Zračni tlak: 30 in 29.9 in -
Padavine: 0 in    
Historical Graphs
 
 
Tabelarni podarki za Avgust 27, 2017
Čas Temperatura Točka rosišča Zračni tlak Veter Hitrost vetra Sunki vetra Vlažnost Intenziteta padavin (urna)
00:00 66.4 °F 61.3 °F 30 in Calm     84 % 0 in
00:05 66.2 °F 61 °F 30 in Calm     83 % 0 in
00:10 66.2 °F 61.9 °F 30 in Calm     86 % 0 in
00:15 66 °F 61.7 °F 30 in Calm     86 % 0 in
00:20 66 °F 61.7 °F 30 in Calm     86 % 0 in
00:25 65.8 °F 61.5 °F 30 in Calm     86 % 0 in
00:30 65.8 °F 61.5 °F 30 in Calm     86 % 0 in
00:35 65.7 °F 61.3 °F 30 in Calm     86 % 0 in
00:40 65.5 °F 61.5 °F 30 in Calm     87 % 0 in
00:45 65.3 °F 61.3 °F 30 in Calm     87 % 0 in
00:50 65.1 °F 61.2 °F 30 in Calm     87 % 0 in
00:55 65.1 °F 61.2 °F 30 in Calm     87 % 0 in
01:00 64.9 °F 61 °F 30 in Calm     87 % 0 in
01:05 64.8 °F 60.8 °F 30 in Calm     87 % 0 in
01:10 64.8 °F 60.8 °F 30 in Calm     87 % 0 in
01:15 64.8 °F 61.2 °F 30 in Calm     88 % 0 in
01:20 64.6 °F 61 °F 30 in Calm     88 % 0 in
01:25 64.4 °F 60.8 °F 30 in Calm     88 % 0 in
01:30 64.4 °F 60.8 °F 30 in Calm     88 % 0 in
01:35 64.2 °F 60.6 °F 30 in Calm     88 % 0 in
01:40 64.2 °F 60.6 °F 30 in Calm     88 % 0 in
01:45 64.2 °F 60.6 °F 30 in Calm     88 % 0 in
01:50 64 °F 60.4 °F 30 in Calm     88 % 0 in
01:55 63.9 °F 60.6 °F 30 in Calm     89 % 0 in
02:00 63.9 °F 60.6 °F 30 in Calm     89 % 0 in
02:05 63.7 °F 60.4 °F 30 in Calm     89 % 0 in
02:10 63.7 °F 60.4 °F 30 in Calm     89 % 0 in
02:15 63.5 °F 60.3 °F 30 in Calm     89 % 0 in
02:20 63.5 °F 60.3 °F 30 in Calm     89 % 0 in
02:25 63.3 °F 60.1 °F 30 in Calm     89 % 0 in
02:30 63.3 °F 60.1 °F 30 in Calm     89 % 0 in
02:35 63.1 °F 59.7 °F 30 in Calm     89 % 0 in
02:40 63.1 °F 59.7 °F 30 in Calm     89 % 0 in
02:45 63 °F 59.7 °F 30 in Calm     89 % 0 in
02:50 63 °F 59.7 °F 30 in Calm     89 % 0 in
02:55 62.8 °F 59.5 °F 30 in Calm     89 % 0 in
03:00 62.6 °F 59.5 °F 30 in Calm     90 % 0 in
03:05 62.6 °F 59.5 °F 30 in Calm     90 % 0 in
03:10 62.6 °F 59.5 °F 30 in Calm     90 % 0 in
03:15 62.4 °F 59.4 °F 30 in Calm     90 % 0 in
03:20 62.4 °F 59.4 °F 30 in Calm     90 % 0 in
03:25 62.4 °F 59.4 °F 30 in Calm     90 % 0 in
03:30 62.2 °F 59.5 °F 30 in Calm     91 % 0 in
03:35 62.2 °F 59.5 °F 30 in Calm   2.7 mph 91 % 0 in
03:40 62.2 °F 59.5 °F 30 in NW 0.3 mph 2.7 mph 91 % 0 in
03:45 62.1 °F 59.4 °F 30 in NW 0.3 mph 2.7 mph 91 % 0 in
03:50 62.1 °F 59.4 °F 30 in Calm     91 % 0 in
03:55 61.9 °F 59.2 °F 30 in Calm     91 % 0 in
04:00 61.9 °F 59.2 °F 30 in Calm   1.3 mph 91 % 0 in
04:05 61.9 °F 59.2 °F 30 in WSW 0.7 mph 2.5 mph 91 % 0 in
04:10 61.7 °F 59 °F 30 in WSW 1 mph 2.5 mph 91 % 0 in
04:15 61.7 °F 59.4 °F 30 in West 0.3 mph 2 mph 92 % 0 in
04:20 61.7 °F 59.4 °F 30 in Calm   1.3 mph 92 % 0 in
04:25 61.5 °F 58.8 °F 30 in Calm     91 % 0 in
04:30 61.5 °F 59.2 °F 30 in Calm     92 % 0 in
04:35 61.5 °F 59.2 °F 30 in Calm     92 % 0 in
04:40 61.5 °F 58.8 °F 30 in Calm     91 % 0 in
04:45 61.5 °F 59.2 °F 30 in Calm     92 % 0 in
04:50 61.5 °F 59.2 °F 30 in Calm     92 % 0 in
04:55 61.5 °F 59.2 °F 30 in Calm     92 % 0 in
05:00 61.5 °F 59.2 °F 30 in Calm     92 % 0 in
05:05 61.5 °F 59.2 °F 30 in Calm     92 % 0 in
05:11 61.5 °F 59.2 °F 30 in Calm     92 % 0 in
05:16 61.5 °F 59.2 °F 30 in Calm     92 % 0 in
05:21 61.3 °F 59 °F 30 in Calm     92 % 0 in
05:26 61.5 °F 59.2 °F 30 in Calm     92 % 0 in
05:31 61.3 °F 59 °F 30 in Calm     92 % 0 in
05:36 61.5 °F 59.2 °F 30 in Calm     92 % 0 in
05:41 61.5 °F 59.2 °F 30 in Calm     92 % 0 in
05:46 61.5 °F 59.2 °F 30 in Calm     92 % 0 in
05:51 61.7 °F 59.4 °F 30 in Calm     92 % 0 in
05:56 61.7 °F 59.4 °F 30 in Calm     92 % 0 in
06:01 61.9 °F 59.7 °F 30 in Calm     93 % 0 in
06:06 61.9 °F 59.5 °F 30 in Calm     92 % 0 in
06:11 61.9 °F 59.7 °F 30 in Calm     93 % 0 in
06:16 61.9 °F 59.7 °F 30 in Calm     93 % 0 in
06:21 61.9 °F 59.7 °F 30 in Calm     93 % 0 in
06:26 62.1 °F 60.1 °F 30 in Calm     93 % 0 in
06:31 62.1 °F 60.1 °F 30 in Calm     93 % 0 in
06:36 62.2 °F 60.3 °F 30 in Calm     93 % 0 in
06:41 62.2 °F 60.3 °F 30 in Calm     93 % 0 in
06:46 62.4 °F 60.4 °F 30 in Calm     93 % 0 in
06:51 62.4 °F 60.4 °F 30 in Calm     93 % 0 in
06:56 62.4 °F 60.4 °F 30 in Calm     93 % 0 in
07:01 62.6 °F 60.4 °F 30 in Calm     93 % 0 in
07:06 62.6 °F 60.4 °F 30 in Calm     93 % 0 in
07:11 62.6 °F 60.4 °F 30 in Calm     93 % 0 in
07:16 62.6 °F 60.4 °F 30 in Calm     93 % 0 in
07:21 63 °F 61 °F 30 in Calm     93 % 0 in
07:26 63 °F 61 °F 30 in Calm     93 % 0 in
07:31 63.3 °F 61.3 °F 30 in Calm     93 % 0 in
07:36 63.5 °F 61.3 °F 30 in Calm     93 % 0 in
07:41 63.9 °F 61.9 °F 30 in Calm     93 % 0 in
07:46 64 °F 62.1 °F 30 in Calm     93 % 0 in
07:51 64.4 °F 62.1 °F 30 in Calm     92 % 0 in
07:56 64.4 °F 62.1 °F 30 in Calm     92 % 0 in
08:02 64.6 °F 62.2 °F 30 in Calm     92 % 0 in
08:07 64.9 °F 62.6 °F 30 in Calm     92 % 0 in
08:12 65.5 °F 63.1 °F 30 in Calm     92 % 0 in
08:17 66 °F 63.7 °F 30 in Calm     92 % 0 in
08:22 66.7 °F 64 °F 30 in Calm   1.1 mph 91 % 0 in
08:27 67.3 °F 64.6 °F 30 in Calm   1.1 mph 91 % 0 in
08:32 68 °F 64.9 °F 30 in Calm     90 % 0 in
08:37 68.9 °F 65.5 °F 30 in ESE 0.4 mph 2.7 mph 89 % 0 in
08:42 69.4 °F 66 °F 30 in ESE 0.8 mph 2.7 mph 89 % 0 in
08:47 70.2 °F 66 °F 30 in ESE 0.4 mph 2.2 mph 87 % 0 in
08:52 70.9 °F 66.7 °F 30 in ESE 0.1 mph 1.3 mph 87 % 0 in
08:57 71.6 °F 66.7 °F 30 in ESE 0.5 mph 3.1 mph 85 % 0 in
09:02 72.3 °F 66.9 °F 30 in ESE 0.9 mph 3.1 mph 83 % 0 in
09:07 72.9 °F 66.7 °F 30 in ESE 1 mph 2.9 mph 81 % 0 in
09:12 73.4 °F 66.9 °F 30 in ESE 0.6 mph 2.7 mph 80 % 0 in
09:17 73.9 °F 67.5 °F 30 in ESE 0.4 mph 2 mph 80 % 0 in
09:22 74.5 °F 67.5 °F 30 in ESE 0.9 mph 2.2 mph 79 % 0 in
09:27 74.8 °F 67.5 °F 30 in ESE 0.6 mph 2.2 mph 78 % 0 in
09:32 75.2 °F 67.5 °F 30 in SE 0.3 mph 2.5 mph 77 % 0 in
09:37 75.7 °F 67.3 °F 30 in SE 0.7 mph 2.5 mph 75 % 0 in
09:42 75.9 °F 66.9 °F 30 in SE 0.4 mph 2.5 mph 74 % 0 in
09:47 75.9 °F 66.2 °F 30 in SE 0.1 mph 2.5 mph 72 % 0 in
09:52 76.5 °F 66.7 °F 30 in SE 0.3 mph 2.5 mph 72 % 0 in
09:57 77 °F 66.6 °F 30 in SE 0.5 mph 2.2 mph 70 % 0 in
10:02 77.5 °F 66.6 °F 30 in SE 0.3 mph 2 mph 69 % 0 in
10:07 78.1 °F 67.1 °F 30 in Calm     69 % 0 in
10:12 78.6 °F 67.3 °F 30 in SE 0.3 mph 1.6 mph 68 % 0 in
10:13 78.8 °F 67.3 °F 30 in SE 0.4 mph 2.9 mph 68 % 0 in
10:18 79.5 °F 68 °F 30 in SSE 1.1 mph 2.9 mph 68 % 0 in
10:23 80.2 °F 68.4 °F 30 in South 2.2 mph 4.3 mph 67 % 0 in
10:28 80.6 °F 68.2 °F 30 in South 2.5 mph 5.4 mph 66 % 0 in
10:34 81.3 °F 68.4 °F 30 in South 2.3 mph 5.4 mph 65 % 0 in
10:39 81.9 °F 68.5 °F 30 in South 2.6 mph 4.7 mph 64 % 0 in
10:44 82.2 °F 68.4 °F 30 in South 2.6 mph 4.3 mph 63 % 0 in
10:49 82.8 °F 68.4 °F 30 in SSW 2.5 mph 4.3 mph 62 % 0 in
10:54 83.1 °F 68.7 °F 30 in South 1.7 mph 4.9 mph 62 % 0 in
10:59 83.5 °F 68.2 °F 30 in South 1.3 mph 4.9 mph 60 % 0 in
11:04 83.7 °F 68.4 °F 30 in SSE 1.5 mph 3.1 mph 60 % 0 in
11:09 84 °F 68.2 °F 30 in SE 1.3 mph 3.1 mph 59 % 0 in
11:14 84.4 °F 68 °F 30 in East 1.7 mph 3.6 mph 58 % 0 in
11:19 84.6 °F 67.1 °F 30 in ESE 2.2 mph 4.3 mph 56 % 0 in
11:24 85.1 °F 67.6 °F 30 in ESE 2.2 mph 4.3 mph 56 % 0 in
11:29 85.6 °F 68.2 °F 30 in ESE 2.6 mph 4 mph 56 % 0 in
11:30 85.6 °F 68.2 °F 30 in ESE 2.6 mph 4.3 mph 56 % 0 in
11:35 86.2 °F 66.9 °F 30 in SE 2.8 mph 4.3 mph 53 % 0 in
11:40 86.5 °F 65.7 °F 30 in SE 2.1 mph 4 mph 50 % 0 in
11:45 86.9 °F 66.6 °F 30 in ESE 2.1 mph 4.9 mph 51 % 0 in
11:50 87.1 °F 66.2 °F 30 in ESE 2.4 mph 4.9 mph 50 % 0 in
11:55 87.3 °F 66.4 °F 30 in SSE 2.3 mph 4 mph 50 % 0 in
12:00 87.6 °F 66 °F 30 in SSE 1.9 mph 4.3 mph 49 % 0 in
12:05 87.6 °F 64.9 °F 30 in ESE 1.1 mph 4.3 mph 47 % 0 in
12:10 88 °F 65.1 °F 30 in South 1.5 mph 4 mph 47 % 0 in
12:15 88.3 °F 65.7 °F 30 in SSE 2.5 mph 6.3 mph 47 % 0 in
12:20 88.7 °F 65.3 °F 30 in SSE 2.6 mph 6.3 mph 46 % 0 in
12:25 88.7 °F 65.3 °F 30 in SSW 2.5 mph 4.3 mph 46 % 0 in
12:30 88.9 °F 64.8 °F 30 in SSW 2.4 mph 4.3 mph 45 % 0 in
12:35 89.2 °F 65.1 °F 30 in SSE 2.5 mph 6 mph 45 % 0 in
12:40 89.4 °F 65.3 °F 30 in SW 2.7 mph 6 mph 45 % 0 in
12:45 89.8 °F 64.9 °F 30 in WSW 2.5 mph 4.9 mph 44 % 0 in
12:50 90 °F 65.1 °F 30 in SW 2.4 mph 7.2 mph 44 % 0 in
12:55 90.5 °F 64.9 °F 30 in SSW 3 mph 7.2 mph 43 % 0 in
13:00 90.5 °F 64.2 °F 30 in South 2.9 mph 4.9 mph 42 % 0 in
13:05 90.7 °F 65.1 °F 30 in SW 2.9 mph 7.4 mph 43 % 0 in
13:10 91 °F 65.5 °F 30 in SSW 3.5 mph 7.4 mph 43 % 0 in
13:15 91.2 °F 64.9 °F 30 in South 2.6 mph 7.6 mph 42 % 0 in
13:20 91.4 °F 65.1 °F 30 in WSW 3.2 mph 7.6 mph 42 % 0 in
13:25 91.6 °F 64.6 °F 30 in WSW 4.2 mph 7.6 mph 41 % 0 in
13:30 91.4 °F 63.7 °F 30 in SW 3.2 mph 6.5 mph 40 % 0 in
13:35 91.8 °F 64 °F 30 in South 2.9 mph 6.5 mph 40 % 0 in
13:40 92.1 °F 64.2 °F 30 in South 1.8 mph 6.5 mph 40 % 0 in
13:45 92.3 °F 64.6 °F 30 in SSW 1.2 mph 4.9 mph 40 % 0 in
13:50 92.5 °F 63.9 °F 30 in SW 2.7 mph 6.5 mph 39 % 0 in
13:55 92.3 °F 63.9 °F 30 in South 2.6 mph 6.5 mph 39 % 0 in
14:00 92.3 °F 63.9 °F 30 in ESE 2.9 mph 9.6 mph 39 % 0 in
14:05 92.3 °F 63.9 °F 30 in ESE 3.1 mph 9.6 mph 39 % 0 in
14:10 92.1 °F 63.7 °F 30 in SSW 2.3 mph 5.4 mph 39 % 0 in
14:15 92.1 °F 63 °F 30 in WSW 3 mph 7.6 mph 38 % 0 in
14:20 92.3 °F 63.9 °F 30 in WSW 3.8 mph 7.6 mph 39 % 0 in
14:25 92.7 °F 64 °F 30 in SSW 2.8 mph 5.8 mph 39 % 0 in
14:30 92.7 °F 63.3 °F 30 in SE 2.7 mph 6 mph 38 % 0 in
14:35 92.5 °F 63.1 °F 30 in East 2.8 mph 6 mph 38 % 0 in
14:40 92.3 °F 63 °F 30 in East 2.7 mph 6 mph 38 % 0 in
14:45 92.5 °F 63.1 °F 30 in WSW 2.9 mph 6 mph 38 % 0 in
14:50 92.8 °F 63.5 °F 29.9 in SW 3.3 mph 6 mph 38 % 0 in
14:55 92.8 °F 63.5 °F 29.9 in South 3.1 mph 6 mph 38 % 0 in
15:00 92.8 °F 63.5 °F 29.9 in West 2.6 mph 7.2 mph 38 % 0 in
15:05 93.2 °F 63.9 °F 29.9 in SSW 3.1 mph 7.2 mph 38 % 0 in
15:10 93.2 °F 63.9 °F 29.9 in SSE 3.2 mph 6.7 mph 38 % 0 in
15:15 93.2 °F 63.1 °F 29.9 in SE 2.5 mph 4.9 mph 37 % 0 in
15:20 93.2 °F 63.1 °F 29.9 in SW 2.5 mph 5.6 mph 37 % 0 in
15:25 93.4 °F 63.1 °F 29.9 in South 2.6 mph 5.6 mph 37 % 0 in
15:30 93.4 °F 63.1 °F 29.9 in SE 1.6 mph 5.6 mph 37 % 0 in
15:35 93.2 °F 63.1 °F 29.9 in SE 1.8 mph 6.3 mph 37 % 0 in
15:40 93.6 °F 63.3 °F 29.9 in SE 2.9 mph 6.3 mph 37 % 0 in
15:45 93.6 °F 63.3 °F 29.9 in SE 1.8 mph 5.4 mph 37 % 0 in
15:50 93.7 °F 63.5 °F 29.9 in SSE 1.2 mph 4 mph 37 % 0 in
15:55 93.7 °F 63.5 °F 29.9 in SSE 2.2 mph 5.6 mph 37 % 0 in
16:00 93.9 °F 63.7 °F 29.9 in SSE 2.6 mph 5.6 mph 37 % 0 in
16:05 94.1 °F 63.9 °F 29.9 in SE 3 mph 5.4 mph 37 % 0 in
16:10 94.1 °F 63.9 °F 29.9 in SSE 2.6 mph 5.4 mph 37 % 0 in
16:14 93.7 °F 63.5 °F 29.9 in South 2.4 mph 4.9 mph 37 % 0 in
16:19 93.6 °F 63.3 °F 29.9 in ESE 2 mph 6.5 mph 37 % 0 in
16:24 93.6 °F 63.3 °F 29.9 in ESE 2 mph 6.5 mph 37 % 0 in
16:29 93.6 °F 63.3 °F 29.9 in South 2.2 mph 5.4 mph 37 % 0 in
16:34 93.6 °F 63.3 °F 29.9 in South 1.8 mph 5.4 mph 37 % 0 in
16:39 93.6 °F 63.3 °F 29.9 in South 1.5 mph 4.3 mph 37 % 0 in
16:44 93.7 °F 63.5 °F 29.9 in South 2.3 mph 4.9 mph 37 % 0 in
16:49 93.6 °F 63.3 °F 29.9 in South 2.4 mph 4.9 mph 37 % 0 in
16:54 93.6 °F 63.3 °F 29.9 in South 2.5 mph 4.9 mph 37 % 0 in
16:59 93.4 °F 63.1 °F 29.9 in SSE 2.7 mph 4.9 mph 37 % 0 in
17:04 93.4 °F 63.1 °F 29.9 in SE 2.7 mph 4.9 mph 37 % 0 in
17:09 93.2 °F 63.1 °F 29.9 in SSE 2.6 mph 4.3 mph 37 % 0 in
17:14 93.2 °F 63.1 °F 29.9 in SE 2.5 mph 4.3 mph 37 % 0 in
17:19 93.2 °F 63.1 °F 29.9 in SE 2 mph 4.3 mph 37 % 0 in
17:24 93.2 °F 63.1 °F 29.9 in SE 1.1 mph 3.1 mph 37 % 0 in
17:29 92.8 °F 62.8 °F 29.9 in SSE 0.3 mph 2.2 mph 37 % 0 in
17:34 92.7 °F 62.6 °F 29.9 in SE 0.8 mph 3.8 mph 37 % 0 in
17:39 92.5 °F 62.4 °F 29.9 in SE 1.8 mph 3.8 mph 37 % 0 in
17:44 92.3 °F 62.2 °F 29.9 in SE 1.5 mph 3.4 mph 37 % 0 in
17:49 92.1 °F 62.1 °F 29.9 in SE 1.2 mph 3.8 mph 37 % 0 in
17:54 91.6 °F 61.5 °F 29.9 in South 1.2 mph 3.8 mph 37 % 0 in
17:59 91 °F 61.9 °F 29.9 in SSW 1.4 mph 3.1 mph 38 % 0 in
18:05 90.3 °F 61.3 °F 29.9 in SSW 1.7 mph 3.1 mph 38 % 0 in
18:10 89.8 °F 60.8 °F 29.9 in SW 1.5 mph 3.1 mph 38 % 0 in
18:15 88.9 °F 62.1 °F 29.9 in South 0.9 mph 2.7 mph 41 % 0 in
18:20 87.6 °F 61 °F 29.9 in North 1 mph 3.4 mph 41 % 0 in
18:25 86.9 °F 61 °F 29.9 in NNW 1.4 mph 3.4 mph 42 % 0 in
18:30 85.8 °F 61.3 °F 29.9 in WNW 1 mph 3.4 mph 44 % 0 in
18:35 84.9 °F 61.9 °F 29.9 in WNW 0.6 mph 2.2 mph 46 % 0 in
18:40 84.4 °F 61.3 °F 29.9 in WNW 0.6 mph 2.5 mph 46 % 0 in
18:45 83.7 °F 61.9 °F 29.9 in NW 0.3 mph 2.5 mph 48 % 0 in
18:50 82.9 °F 61.9 °F 29.9 in Calm   1.1 mph 49 % 0 in
18:55 82.4 °F 61.9 °F 29.9 in Calm     50 % 0 in
19:00 81.9 °F 62.1 °F 29.9 in WNW 0.2 mph 2 mph 51 % 0 in
19:05 81.1 °F 61.9 °F 29.9 in WNW 0.3 mph 2.2 mph 52 % 0 in
19:10 80.8 °F 62.6 °F 29.9 in NW 0.8 mph 2.7 mph 54 % 0 in
19:15 80.1 °F 63 °F 29.9 in NW 1.5 mph 3.4 mph 56 % 0 in
19:20 79.7 °F 63.1 °F 29.9 in NW 1.4 mph 3.4 mph 57 % 0 in
19:25 79.2 °F 63.1 °F 29.9 in NW 1.3 mph 3.4 mph 58 % 0 in
19:30 78.6 °F 63.1 °F 29.9 in NNW 1 mph 3.1 mph 59 % 0 in
19:35 78.1 °F 63.5 °F 29.9 in North 0.3 mph 2.2 mph 61 % 0 in
19:40 77.7 °F 63.7 °F 29.9 in North 0.1 mph   62 % 0 in
19:45 77.2 °F 64 °F 29.9 in Calm     64 % 0 in
19:50 76.8 °F 63.7 °F 29.9 in Calm     64 % 0 in
19:55 76.5 °F 63.9 °F 29.9 in Calm     65 % 0 in
20:00 76.1 °F 63.5 °F 29.9 in Calm     65 % 0 in
20:05 75.7 °F 64 °F 29.9 in Calm     67 % 0 in
20:10 75.6 °F 63.9 °F 29.9 in Calm     67 % 0 in
20:15 75.2 °F 63.5 °F 29.9 in Calm     67 % 0 in
20:20 74.8 °F 63.7 °F 29.9 in Calm     68 % 0 in
20:30 74.7 °F 63.9 °F 29.9 in Calm     69 % 0 in
20:35 74.5 °F 64 °F 29.9 in Calm     70 % 0 in
20:40 74.3 °F 64.2 °F 29.9 in Calm     71 % 0 in
20:45 74.1 °F 63.7 °F 29.9 in Calm     70 % 0 in
20:50 73.9 °F 63.9 °F 29.9 in Calm     71 % 0 in
20:55 73.9 °F 63.5 °F 29.9 in Calm     70 % 0 in
21:00 73.8 °F 63.9 °F 29.9 in Calm     71 % 0 in
21:05 73.8 °F 64.6 °F 30 in Calm     73 % 0 in
21:10 73.8 °F 64.6 °F 30 in North 0.6 mph 4 mph 73 % 0 in
21:15 73.9 °F 63.9 °F 30 in North 1.8 mph 6 mph 71 % 0 in
21:20 76.6 °F 59.4 °F 30 in North 4.1 mph 12.3 mph 55 % 0 in
21:25 78.1 °F 59.5 °F 30 in North 6.3 mph 13.9 mph 53 % 0 in
21:30 79.3 °F 57.4 °F 30 in North 6.6 mph 14.5 mph 47 % 0 in
21:35 79.9 °F 57.4 °F 30 in North 6.8 mph 17 mph 46 % 0 in
21:40 80.2 °F 57 °F 30 in NNE 6.6 mph 17 mph 45 % 0 in
21:45 80.4 °F 56.5 °F 30 in NNE 6.2 mph 17.2 mph 44 % 0 in
21:50 80.6 °F 55.9 °F 30 in North 7.6 mph 17.2 mph 43 % 0 in
21:55 80.6 °F 55.9 °F 30 in North 8 mph 16.8 mph 43 % 0 in
22:00 80.6 °F 55.4 °F 30 in NNE 7.1 mph 16.6 mph 42 % 0 in
22:05 80.6 °F 55.4 °F 30 in NNE 7.2 mph 15.4 mph 42 % 0 in
22:10 80.6 °F 54.7 °F 30 in NNE 7 mph 15.4 mph 41 % 0 in
22:15 80.6 °F 54.7 °F 30 in NNE 7 mph 14.8 mph 41 % 0 in
22:20 80.6 °F 54.7 °F 30 in NE 6.8 mph 14.8 mph 41 % 0 in
22:25 80.4 °F 54.7 °F 30 in NE 4.8 mph 11.2 mph 41 % 0 in
22:30 80.2 °F 54.3 °F 30 in NE 5.2 mph 11 mph 41 % 0 in
22:35 80.2 °F 54.3 °F 30 in NNE 5.6 mph 11 mph 41 % 0 in
22:40 80.1 °F 54.1 °F 30 in NNE 5 mph 14.8 mph 41 % 0 in
22:45 79.9 °F 54.1 °F 30 in ENE 4.5 mph 14.8 mph 41 % 0 in
22:50 79.7 °F 54 °F 30 in SE 4.5 mph 10.3 mph 41 % 0 in
22:55 79.5 °F 53.8 °F 30 in SSE 4.2 mph 10.3 mph 41 % 0 in
23:00 79.3 °F 54.3 °F 30 in SSE 3.1 mph 7.2 mph 42 % 0 in
23:05 79 °F 54 °F 30 in ESE 3.2 mph 8.1 mph 42 % 0 in
23:10 78.8 °F 53.8 °F 30 in ESE 3.4 mph 8.5 mph 42 % 0 in
23:15 78.6 °F 54.1 °F 30 in ESE 3.2 mph 8.5 mph 43 % 0 in
23:20 78.3 °F 54.7 °F 30 in ESE 4.1 mph 9.6 mph 44 % 0 in
23:25 77.9 °F 54.9 °F 30 in East 4.3 mph 9.6 mph 45 % 0 in
23:30 77.2 °F 54.9 °F 30 in East 3.2 mph 8.7 mph 46 % 0 in
23:35 76.3 °F 55.8 °F 30 in East 3.5 mph 8.7 mph 49 % 0 in
23:40 75.7 °F 55.8 °F 30 in East 3.6 mph 8.7 mph 50 % 0 in
23:45 75.2 °F 56.5 °F 30 in ENE 3.2 mph 8.7 mph 52 % 0 in
23:50 75 °F 56.7 °F 30 in East 2.7 mph 7.4 mph 53 % 0 in
23:55 74.8 °F 57 °F 30 in East 2.5 mph 7.4 mph 54 % 0 in
Vremenska postaja Senovo
Podatki zbrani iz Weather Underground - 3 mb

Script developed by  Jim McMurry - jmcmurry@mwt.net Adapted for the template by  Wim van der Kuil - Leuven-Template.eu

Vremenski podatki so objavljeni na:

WeatherCloud

Weather Underground

AWEKAS

HAMweather, WeatherForYou, PWS Weather

MapView

Geostik

Slovenia weather network

Oprema, ki se uporablja:

Vremenski program
Cumulus

Cumulus